Time;durP1;ratioP1;P1;durP2;ratioP2;P2;SDS_P1;SDS_P2;PMS_P1;PMS_P2;Temp;Humidity;BMP_temperature;BMP_pressure;BME280_temperature;BME280_humidity;BME280_pressure;Samples;Min_cycle;Max_cycle;Signal;HPM_P1;HPM_P2
2022/01/30 00:00:45;;;;;;;3.78;1.15;;;6.70;99.90;;;;;;6185034;23;20020;-77
2022/01/30 00:03:11;;;;;;;2.58;1.20;;;6.70;99.90;;;;;;6185254;23;20013;-77
2022/01/30 00:05:38;;;;;;;2.65;1.30;;;6.80;99.90;;;;;;6160123;23;20009;-78
2022/01/30 00:08:05;;;;;;;2.70;1.40;;;6.70;99.90;;;;;;6160085;23;20017;-79
2022/01/30 00:10:38;;;;;;;2.55;1.27;;;6.70;99.90;;;;;;6185038;23;20389;-79
2022/01/30 00:13:08;;;;;;;2.22;1.38;;;6.70;99.90;;;;;;6191976;23;20008;-78
2022/01/30 00:15:45;;;;;;;1.42;1.02;;;6.70;99.90;;;;;;6217245;23;20015;-78
2022/01/30 00:20:59;;;;;;;5.93;1.75;;;6.70;99.90;;;;;;6217453;23;20000;-75
2022/01/30 00:23:36;;;;;;;2.78;1.67;;;6.60;99.90;;;;;;6125588;23;20014;-75
2022/01/30 00:26:05;;;;;;;3.53;1.42;;;6.60;99.90;;;;;;6125989;23;20006;-76
2022/01/30 00:28:32;;;;;;;1.55;1.45;;;6.60;99.90;;;;;;6125780;23;20096;-74
2022/01/30 00:31:00;;;;;;;1.35;1.23;;;6.60;99.90;;;;;;6125554;23;20070;-74
2022/01/30 00:33:27;;;;;;;2.53;1.20;;;6.60;99.90;;;;;;6125775;23;20006;-74
2022/01/30 00:35:54;;;;;;;2.35;1.80;;;6.50;99.90;;;;;;6125525;23;20006;-74
2022/01/30 00:38:22;;;;;;;3.35;1.17;;;6.50;99.90;;;;;;6124942;23;20053;-74
2022/01/30 00:40:52;;;;;;;2.10;1.33;;;6.50;99.90;;;;;;6101142;23;20017;-74
2022/01/30 00:43:20;;;;;;;3.30;1.40;;;6.40;99.90;;;;;;6100921;23;20010;-74
2022/01/30 00:45:47;;;;;;;5.25;1.60;;;6.50;99.90;;;;;;6125405;23;20069;-74
2022/01/30 00:48:16;;;;;;;9.32;1.70;;;6.50;99.90;;;;;;6125231;23;20021;-74
2022/01/30 00:50:44;;;;;;;2.38;1.35;;;6.40;99.90;;;;;;6125402;23;20006;-74
2022/01/30 00:53:12;;;;;;;6.30;1.48;;;6.40;99.90;;;;;;6125267;23;20014;-74
2022/01/30 00:55:39;;;;;;;4.32;1.08;;;6.40;99.90;;;;;;6188093;23;20026;-74
2022/01/30 00:58:06;;;;;;;6.88;1.70;;;6.40;99.90;;;;;;6190508;23;20015;-74
2022/01/30 01:00:34;;;;;;;3.97;1.65;;;6.40;99.90;;;;;;6190366;23;20312;-74
2022/01/30 01:03:02;;;;;;;4.13;1.85;;;6.30;99.90;;;;;;6217360;23;20009;-74
2022/01/30 01:05:31;;;;;;;7.68;1.67;;;6.30;99.90;;;;;;6216891;23;20000;-73
2022/01/30 01:08:02;;;;;;;4.22;2.08;;;6.20;99.90;;;;;;6190113;23;20086;-74
2022/01/30 01:10:45;;;;;;;2.10;1.42;;;6.20;99.90;;;;;;6190233;23;20382;-74
2022/01/30 01:24:04;;;;;;;7.65;1.52;;;6.20;99.90;;;;;;6190053;23;20335;-76
2022/01/30 01:26:33;;;;;;;6.70;1.42;;;6.20;99.90;;;;;;6216797;23;20093;-77
2022/01/30 01:29:00;;;;;;;4.53;1.60;;;6.30;99.90;;;;;;6216712;23;20419;-77
2022/01/30 01:31:27;;;;;;;3.13;1.50;;;6.40;99.90;;;;;;6216977;23;20422;-77
2022/01/30 01:34:13;;;;;;;5.70;1.60;;;6.40;99.90;;;;;;6190214;23;20008;-76
2022/01/30 01:36:40;;;;;;;2.75;1.40;;;6.40;99.90;;;;;;6216844;23;20374;-76
2022/01/30 01:39:07;;;;;;;1.75;1.00;;;6.30;99.90;;;;;;6217012;23;20047;-77
2022/01/30 01:41:36;;;;;;;8.32;1.58;;;6.30;99.90;;;;;;6190011;23;20080;-76
2022/01/30 01:44:15;;;;;;;3.00;1.33;;;6.30;99.90;;;;;;6216682;23;20008;-76
2022/01/30 01:46:43;;;;;;;3.10;1.50;;;6.30;99.90;;;;;;6216667;23;20016;-76
2022/01/30 01:49:18;;;;;;;1.85;1.13;;;6.30;99.90;;;;;;6216978;23;20017;-76
2022/01/30 01:51:48;;;;;;;2.58;1.15;;;6.30;99.90;;;;;;6216434;23;20001;-77
2022/01/30 01:54:16;;;;;;;8.63;2.15;;;6.30;99.90;;;;;;6216503;23;20012;-75
2022/01/30 01:56:43;;;;;;;2.95;1.50;;;6.30;99.90;;;;;;6216765;23;20012;-75
2022/01/30 01:59:19;;;;;;;3.50;1.17;;;6.20;99.90;;;;;;6216476;23;20452;-75
2022/01/30 02:02:14;;;;;;;3.97;2.15;;;6.20;99.90;;;;;;6216772;23;20430;-75
2022/01/30 02:04:43;;;;;;;7.25;1.50;;;6.10;99.90;;;;;;6189988;23;20011;-75
2022/01/30 02:07:45;;;;;;;6.22;1.77;;;6.10;99.90;;;;;;6189602;23;20469;-74
2022/01/30 02:10:06;;;;;;;5.63;1.33;;;6.00;99.90;;;;;;6189631;23;20454;-76
2022/01/30 02:12:46;;;;;;;2.30;1.20;;;6.00;99.90;;;;;;6216270;23;20012;-77
2022/01/30 02:26:00;;;;;;;5.22;1.85;;;5.90;99.90;;;;;;6216378;23;20000;-76
2022/01/30 02:28:30;;;;;;;3.60;1.48;;;5.80;99.90;;;;;;6216118;23;20019;-75
2022/01/30 02:31:11;;;;;;;3.85;1.65;;;5.80;99.90;;;;;;6189515;23;20008;-75
2022/01/30 02:33:45;;;;;;;2.97;1.67;;;5.80;99.90;;;;;;6216048;23;20452;-75
2022/01/30 02:36:12;;;;;;;10.00;1.63;;;5.70;99.90;;;;;;6189603;23;20009;-76
2022/01/30 02:38:41;;;;;;;9.18;1.98;;;5.70;99.90;;;;;;6216182;23;20072;-75
2022/01/30 02:41:11;;;;;;;9.18;2.00;;;5.70;99.90;;;;;;6216232;23;20000;-75
2022/01/30 02:43:57;;;;;;;5.00;1.38;;;5.60;99.90;;;;;;6216075;23;20005;-75
2022/01/30 02:46:31;;;;;;;2.85;1.67;;;5.50;99.90;;;;;;6189366;23;20031;-76
2022/01/30 02:49:11;;;;;;;7.18;1.75;;;5.50;99.90;;;;;;6216086;23;20021;-76
2022/01/30 02:51:47;;;;;;;3.63;1.13;;;5.50;99.90;;;;;;6216066;23;20010;-76
2022/01/30 02:54:14;;;;;;;2.85;1.23;;;5.40;99.90;;;;;;6189409;23;20016;-75
2022/01/30 02:56:43;;;;;;;2.55;1.33;;;5.50;99.90;;;;;;6216315;23;20035;-75
2022/01/30 02:59:12;;;;;;;4.60;1.70;;;5.40;99.90;;;;;;6215984;23;20076;-75
2022/01/30 03:01:40;;;;;;;8.15;1.58;;;5.40;99.90;;;;;;6189142;23;20018;-75
2022/01/30 03:04:08;;;;;;;7.03;2.05;;;5.40;99.90;;;;;;6215977;23;20001;-75
2022/01/30 03:06:36;;;;;;;3.75;1.60;;;5.30;99.90;;;;;;6215931;23;20004;-76
2022/01/30 03:09:06;;;;;;;7.47;1.52;;;5.30;99.90;;;;;;6189329;23;20017;-76
2022/01/30 03:11:33;;;;;;;1.50;1.20;;;5.30;99.90;;;;;;6216441;23;20004;-76
2022/01/30 03:14:01;;;;;;;3.25;1.42;;;5.30;99.90;;;;;;6189190;23;20435;-75
2022/01/30 03:16:27;;;;;;;2.53;1.60;;;5.20;99.90;;;;;;6162198;23;20021;-76
2022/01/30 03:18:54;;;;;;;6.68;2.47;;;5.20;99.90;;;;;;6135045;23;20013;-76
2022/01/30 03:21:23;;;;;;;8.50;2.20;;;5.20;99.90;;;;;;6159547;23;20005;-76
2022/01/30 03:23:50;;;;;;;4.63;1.70;;;5.20;99.90;;;;;;6185908;23;20059;-76
2022/01/30 03:26:17;;;;;;;8.93;2.63;;;5.20;99.90;;;;;;6185887;23;20005;-75
2022/01/30 03:29:05;;;;;;;4.53;1.98;;;5.10;99.90;;;;;;6186166;23;20075;-74
2022/01/30 03:31:40;;;;;;;5.22;1.88;;;4.90;99.90;;;;;;6159509;23;20045;-76
2022/01/30 03:34:11;;;;;;;5.82;1.92;;;4.80;99.90;;;;;;6159479;23;20020;-76
2022/01/30 03:36:52;;;;;;;3.70;1.50;;;4.90;99.90;;;;;;6185895;23;20055;-76
2022/01/30 03:39:20;;;;;;;5.75;1.67;;;4.90;99.90;;;;;;6159358;23;20013;-75
2022/01/30 03:41:52;;;;;;;7.10;2.40;;;4.90;99.90;;;;;;6159127;23;20012;-75
2022/01/30 03:44:20;;;;;;;10.95;2.67;;;5.00;99.90;;;;;;6185793;23;20017;-75
2022/01/30 03:46:48;;;;;;;4.30;1.88;;;4.80;99.90;;;;;;6185715;23;20005;-75
2022/01/30 03:49:15;;;;;;;6.40;2.40;;;4.70;99.90;;;;;;6185635;23;20009;-76
2022/01/30 03:51:50;;;;;;;3.47;1.83;;;4.70;99.90;;;;;;6185622;23;20005;-75
2022/01/30 03:54:27;;;;;;;2.65;1.70;;;4.60;99.90;;;;;;6185687;23;20051;-75
2022/01/30 03:57:00;;;;;;;9.13;2.08;;;4.70;99.90;;;;;;6159284;23;20040;-77
2022/01/30 03:59:29;;;;;;;16.35;2.17;;;4.80;99.90;;;;;;6185579;23;20458;-74
2022/01/30 04:01:59;;;;;;;8.70;2.88;;;4.80;99.90;;;;;;6185707;23;20005;-75
2022/01/30 04:04:27;;;;;;;3.60;2.10;;;4.60;99.90;;;;;;6185724;23;20008;-75
2022/01/30 04:06:57;;;;;;;4.97;2.30;;;4.50;99.90;;;;;;6159166;23;20075;-75
2022/01/30 04:09:45;;;;;;;5.32;2.13;;;4.50;99.90;;;;;;6169621;23;20064;-75
2022/01/30 04:12:21;;;;;;;5.15;1.58;;;4.50;99.90;;;;;;6185586;23;20336;-75
2022/01/30 04:15:09;;;;;;;3.60;1.52;;;4.50;99.90;;;;;;6197231;23;20016;-75
2022/01/30 04:18:03;;;;;;;5.30;1.65;;;4.50;99.90;;;;;;6160766;23;20347;-75
2022/01/30 04:20:35;;;;;;;9.07;1.92;;;4.50;99.90;;;;;;6217341;23;20012;-75
2022/01/30 04:23:21;;;;;;;6.43;1.95;;;4.60;99.90;;;;;;6125795;23;20432;-75
2022/01/30 04:26:06;;;;;;;3.47;1.83;;;4.70;99.90;;;;;;6126166;23;20186;-75
2022/01/30 04:28:39;;;;;;;2.50;1.35;;;4.70;99.90;;;;;;6130155;23;20022;-75
2022/01/30 04:31:25;;;;;;;5.10;2.13;;;4.70;99.90;;;;;;6125882;23;20451;-75
2022/01/30 04:34:15;;;;;;;3.22;1.65;;;4.60;99.90;;;;;;6124201;23;20010;-75
2022/01/30 04:37:01;;;;;;;4.65;1.77;;;4.60;99.90;;;;;;6125438;23;20491;-75
2022/01/30 05:01:16;;;;;;;6.05;1.30;;;3.90;99.90;;;;;;6104112;23;20088;-75
2022/01/30 05:04:16;;;;;;;7.78;1.83;;;3.80;99.90;;;;;;6129840;23;20009;-75
2022/01/30 05:09:54;;;;;;;7.38;2.30;;;3.70;99.90;;;;;;6155348;23;20020;-75
2022/01/30 05:12:40;;;;;;;4.50;1.98;;;3.70;99.90;;;;;;6154605;23;20458;-76
2022/01/30 05:15:36;;;;;;;6.10;2.40;;;3.70;99.90;;;;;;6135443;23;20021;-75
2022/01/30 05:18:41;;;;;;;7.85;1.88;;;3.70;99.90;;;;;;6096725;23;20492;-75
2022/01/30 05:21:25;;;;;;;1.98;1.00;;;3.90;99.90;;;;;;6096140;23;20451;-75
2022/01/30 05:23:59;;;;;;;3.17;1.10;;;4.00;99.90;;;;;;6133330;23;20058;-75
2022/01/30 05:26:46;;;;;;;3.20;1.83;;;4.00;99.90;;;;;;6214991;23;20028;-74
2022/01/30 05:29:29;;;;;;;3.88;1.55;;;4.10;99.90;;;;;;6216710;23;20032;-75
2022/01/30 05:32:09;;;;;;;5.10;1.05;;;4.10;99.90;;;;;;6192839;23;20024;-75
2022/01/30 05:34:54;;;;;;;5.60;1.30;;;4.30;99.90;;;;;;6193765;23;20338;-75
2022/01/30 05:37:29;;;;;;;3.40;1.27;;;4.50;99.90;;;;;;6217022;23;20004;-75
2022/01/30 05:40:15;;;;;;;4.75;1.15;;;4.50;99.90;;;;;;6217076;23;20024;-75
2022/01/30 05:42:53;;;;;;;3.78;1.50;;;4.60;99.90;;;;;;6189997;23;20139;-75
2022/01/30 05:45:45;;;;;;;2.67;1.20;;;4.60;99.90;;;;;;6216555;23;20083;-75
2022/01/30 05:48:16;;;;;;;4.28;1.15;;;4.60;99.90;;;;;;6216527;23;20020;-75
2022/01/30 05:51:13;;;;;;;11.70;1.60;;;4.60;99.90;;;;;;6095508;23;20011;-75
2022/01/30 05:53:54;;;;;;;2.58;1.40;;;4.60;99.90;;;;;;6095819;23;20404;-75
2022/01/30 05:56:24;;;;;;;3.65;1.70;;;4.60;99.90;;;;;;6095246;23;20479;-75
2022/01/30 05:58:52;;;;;;;4.53;1.17;;;4.60;99.90;;;;;;6095496;23;20016;-75
2022/01/30 06:01:38;;;;;;;5.05;1.92;;;4.60;99.90;;;;;;6095503;23;20074;-75
2022/01/30 06:04:31;;;;;;;7.60;2.17;;;4.60;99.90;;;;;;6094176;23;20319;-75
2022/01/30 06:06:59;;;;;;;3.35;1.60;;;4.60;99.90;;;;;;6071206;23;20097;-76
2022/01/30 06:09:26;;;;;;;9.88;2.25;;;4.70;99.90;;;;;;6095570;23;20014;-75
2022/01/30 06:11:54;;;;;;;6.03;1.92;;;4.60;99.90;;;;;;6095244;23;20015;-75
2022/01/30 06:14:24;;;;;;;3.03;1.45;;;4.60;99.90;;;;;;6094230;23;20015;-75
2022/01/30 06:17:00;;;;;;;4.05;1.33;;;4.60;99.90;;;;;;6066349;23;20011;-75
2022/01/30 06:19:45;;;;;;;4.20;1.25;;;4.50;99.90;;;;;;6066559;23;20119;-75
2022/01/30 06:22:30;;;;;;;6.78;2.38;;;4.40;99.90;;;;;;6066888;23;20114;-75
2022/01/30 06:25:15;;;;;;;9.73;2.08;;;4.40;99.90;;;;;;6066631;23;20026;-75
2022/01/30 06:28:00;;;;;;;6.30;2.72;;;4.30;99.90;;;;;;6146772;23;20474;-75
2022/01/30 06:30:53;;;;;;;5.82;2.05;;;4.30;99.90;;;;;;6183382;23;20344;-75
2022/01/30 06:33:38;;;;;;;9.45;1.58;;;4.40;99.90;;;;;;6186525;23;20387;-76
2022/01/30 06:36:23;;;;;;;2.83;1.25;;;4.50;99.90;;;;;;6185809;23;20068;-75
2022/01/30 06:39:00;;;;;;;4.88;1.90;;;4.60;99.90;;;;;;6186092;23;20052;-75
2022/01/30 06:41:45;;;;;;;5.00;1.83;;;4.60;99.90;;;;;;6186474;23;20083;-75
2022/01/30 06:44:30;;;;;;;4.78;2.13;;;4.70;99.90;;;;;;6186430;23;20032;-75
2022/01/30 06:47:17;;;;;;;13.23;1.83;;;4.70;99.90;;;;;;6154608;23;20047;-75
2022/01/30 06:50:02;;;;;;;8.20;2.45;;;4.80;99.90;;;;;;6186440;23;20040;-75
2022/01/30 06:52:47;;;;;;;1.98;1.23;;;4.80;99.90;;;;;;6185897;23;20505;-74
2022/01/30 06:55:43;;;;;;;16.15;2.22;;;4.80;99.90;;;;;;6185783;23;20024;-75
2022/01/30 06:58:28;;;;;;;9.65;2.35;;;4.80;99.90;;;;;;6186298;23;20021;-75
2022/01/30 07:01:13;;;;;;;5.57;1.80;;;4.80;99.90;;;;;;6186348;23;20056;-75
2022/01/30 07:04:00;;;;;;;6.32;1.80;;;4.90;99.90;;;;;;6154514;23;20009;-75
2022/01/30 07:06:46;;;;;;;4.57;1.75;;;5.00;99.90;;;;;;6154700;23;20312;-75
2022/01/30 07:09:13;;;;;;;9.32;2.70;;;5.00;99.90;;;;;;6159601;23;20020;-75
2022/01/30 07:11:39;;;;;;;11.15;2.65;;;5.10;99.90;;;;;;6159771;23;20024;-75
2022/01/30 07:14:06;;;;;;;7.22;2.65;;;5.20;99.90;;;;;;6159781;23;20479;-75
2022/01/30 07:16:32;;;;;;;7.88;1.50;;;5.30;99.90;;;;;;6213356;23;20084;-75
2022/01/30 07:18:59;;;;;;;6.68;2.25;;;5.40;99.90;;;;;;6189421;23;20059;-75
2022/01/30 07:21:25;;;;;;;6.65;1.75;;;5.50;99.90;;;;;;6215803;23;20004;-75
2022/01/30 07:23:52;;;;;;;3.88;1.85;;;5.60;99.90;;;;;;6215865;23;20011;-75
2022/01/30 07:26:21;;;;;;;10.25;1.98;;;5.70;99.90;;;;;;6215991;23;20054;-74
2022/01/30 07:28:48;;;;;;;3.78;1.20;;;5.90;99.90;;;;;;6215781;23;20458;-75
2022/01/30 07:31:15;;;;;;;2.15;1.30;;;6.00;99.90;;;;;;6215891;23;20379;-75
2022/01/30 07:33:41;;;;;;;4.60;1.83;;;6.10;99.90;;;;;;6215583;23;20092;-75
2022/01/30 07:36:08;;;;;;;9.07;1.83;;;6.10;99.90;;;;;;6215803;23;20007;-75
2022/01/30 07:38:37;;;;;;;4.15;1.80;;;6.20;99.90;;;;;;6189207;23;20008;-76
2022/01/30 07:41:04;;;;;;;6.45;1.75;;;6.10;99.90;;;;;;6215855;23;20083;-73
2022/01/30 07:43:31;;;;;;;2.67;1.63;;;6.20;99.90;;;;;;6216005;23;20000;-74
2022/01/30 07:46:05;;;;;;;6.68;1.48;;;6.30;99.90;;;;;;6215787;23;20087;-73
2022/01/30 07:48:33;;;;;;;4.60;1.80;;;6.30;99.90;;;;;;6216500;23;20012;-74
2022/01/30 07:51:00;;;;;;;5.80;1.75;;;6.50;99.90;;;;;;6217726;23;20004;-75
2022/01/30 07:53:26;;;;;;;2.25;1.30;;;6.50;99.90;;;;;;6217605;23;20013;-75
2022/01/30 07:55:54;;;;;;;4.28;1.38;;;6.60;99.90;;;;;;6217977;23;20020;-75
2022/01/30 07:58:20;;;;;;;2.30;1.25;;;6.80;99.90;;;;;;6217596;23;20129;-73
2022/01/30 08:00:48;;;;;;;4.78;1.45;;;6.80;99.90;;;;;;6217597;23;20000;-73
2022/01/30 08:03:14;;;;;;;2.88;1.60;;;7.00;99.90;;;;;;6217412;23;20028;-73
2022/01/30 08:05:41;;;;;;;2.70;1.35;;;7.10;99.90;;;;;;6217457;23;20411;-73
2022/01/30 08:08:08;;;;;;;2.58;1.17;;;7.20;99.90;;;;;;6217424;23;20023;-73
2022/01/30 08:10:35;;;;;;;3.53;1.48;;;7.40;99.90;;;;;;6217846;23;20027;-73
2022/01/30 08:13:01;;;;;;;2.50;1.35;;;7.50;99.90;;;;;;6217806;23;20382;-73
2022/01/30 08:15:28;;;;;;;5.75;1.45;;;7.50;99.90;;;;;;6217330;23;20012;-73
2022/01/30 08:17:54;;;;;;;1.85;1.48;;;7.60;99.90;;;;;;6190677;23;20092;-73
2022/01/30 08:20:24;;;;;;;6.28;1.58;;;7.70;99.90;;;;;;6217438;23;20007;-73
2022/01/30 08:22:53;;;;;;;3.15;1.10;;;7.80;99.90;;;;;;6190882;23;20059;-73
2022/01/30 08:25:23;;;;;;;3.22;1.95;;;7.90;99.90;;;;;;6217325;23;20427;-73
2022/01/30 08:27:51;;;;;;;4.78;1.50;;;7.90;99.90;;;;;;6190509;23;20079;-74
2022/01/30 08:30:18;;;;;;;5.78;1.85;;;8.00;99.90;;;;;;6217646;23;20005;-73
2022/01/30 08:32:48;;;;;;;4.60;2.20;;;8.10;99.90;;;;;;6190902;23;20032;-73
2022/01/30 08:35:16;;;;;;;6.80;1.70;;;8.10;99.90;;;;;;6217268;23;20405;-73
2022/01/30 08:37:43;;;;;;;5.47;1.60;;;8.20;99.90;;;;;;6217148;23;20028;-73
2022/01/30 08:40:15;;;;;;;3.80;1.65;;;8.20;99.90;;;;;;6190519;23;20015;-73
2022/01/30 08:42:43;;;;;;;2.75;1.33;;;8.30;99.90;;;;;;6217016;23;20012;-73
2022/01/30 08:45:13;;;;;;;3.08;1.58;;;8.40;99.90;;;;;;6217108;23;20001;-73
2022/01/30 08:47:43;;;;;;;4.25;1.50;;;8.40;99.90;;;;;;6217104;23;20023;-73
2022/01/30 08:50:14;;;;;;;8.60;1.85;;;8.50;99.90;;;;;;6217185;23;20005;-73
2022/01/30 08:52:43;;;;;;;3.78;1.60;;;8.60;99.90;;;;;;6217085;23;20343;-73
2022/01/30 08:55:11;;;;;;;5.05;1.52;;;8.60;99.90;;;;;;6216536;23;20008;-73
2022/01/30 08:57:40;;;;;;;5.25;2.13;;;8.70;99.90;;;;;;6216431;23;20028;-73
2022/01/30 09:00:11;;;;;;;6.05;2.05;;;8.80;99.90;;;;;;6190158;23;20012;-73
2022/01/30 09:02:38;;;;;;;8.73;2.22;;;8.90;99.90;;;;;;6210826;23;20330;-73
2022/01/30 09:05:10;;;;;;;10.38;2.28;;;9.00;99.90;;;;;;6216889;23;20007;-73
2022/01/30 09:07:38;;;;;;;7.28;2.10;;;9.10;99.90;;;;;;6216509;23;20335;-73
2022/01/30 09:10:07;;;;;;;7.05;2.95;;;9.10;99.90;;;;;;6216793;23;20095;-73
2022/01/30 09:12:37;;;;;;;12.27;1.83;;;9.20;99.90;;;;;;6216702;23;20030;-73
2022/01/30 09:15:06;;;;;;;6.78;1.98;;;9.30;99.90;;;;;;6189880;23;20095;-73
2022/01/30 09:17:33;;;;;;;5.05;1.40;;;9.40;99.90;;;;;;6190298;23;20004;-73
2022/01/30 09:20:00;;;;;;;1.88;1.10;;;9.50;99.90;;;;;;6216676;23;20426;-73
2022/01/30 09:22:26;;;;;;;4.07;1.23;;;9.50;99.90;;;;;;6216721;23;20005;-73
2022/01/30 09:24:53;;;;;;;4.45;1.30;;;9.60;99.90;;;;;;6216643;23;20005;-73
2022/01/30 09:27:20;;;;;;;6.10;1.20;;;9.70;99.90;;;;;;6216486;23;20005;-73
2022/01/30 09:29:46;;;;;;;4.43;1.30;;;9.70;99.90;;;;;;6216635;23;20422;-73
2022/01/30 09:32:14;;;;;;;5.65;1.73;;;9.80;99.90;;;;;;6216529;23;20004;-73
2022/01/30 09:34:40;;;;;;;5.30;1.92;;;9.80;99.90;;;;;;6189894;23;20386;-73
2022/01/30 09:37:09;;;;;;;2.88;1.38;;;9.90;99.90;;;;;;6216481;23;20020;-73
2022/01/30 09:39:38;;;;;;;3.83;1.55;;;9.80;99.90;;;;;;6216197;23;20466;-73
2022/01/30 09:42:06;;;;;;;8.73;1.85;;;9.90;99.90;;;;;;6216465;23;19997;-73
2022/01/30 09:44:39;;;;;;;4.38;1.35;;;10.00;99.90;;;;;;6190015;23;20072;-73
2022/01/30 09:47:17;;;;;;;2.03;1.00;;;10.00;99.90;;;;;;6216292;23;20013;-73
2022/01/30 09:49:55;;;;;;;5.72;1.25;;;10.10;99.90;;;;;;6216260;23;20395;-73
2022/01/30 09:52:22;;;;;;;5.18;1.48;;;10.20;99.90;;;;;;6189822;23;20454;-73
2022/01/30 09:54:49;;;;;;;5.25;1.15;;;10.40;99.90;;;;;;6189574;23;20009;-73
2022/01/30 09:57:16;;;;;;;5.40;1.63;;;10.40;99.90;;;;;;6216603;23;20037;-75
2022/01/30 09:59:43;;;;;;;4.57;1.20;;;10.50;99.90;;;;;;6189784;23;20008;-73
2022/01/30 10:02:12;;;;;;;8.90;0.90;;;10.60;99.90;;;;;;6215814;23;20338;-73
2022/01/30 10:04:39;;;;;;;7.35;1.05;;;10.60;99.90;;;;;;6216078;23;20005;-74
2022/01/30 10:07:21;;;;;;;4.90;1.30;;;10.50;99.90;;;;;;6216093;23;20004;-73
2022/01/30 10:09:50;;;;;;;3.90;2.28;;;10.70;99.90;;;;;;6188804;23;20012;-73
2022/01/30 10:12:23;;;;;;;1.08;0.70;;;10.70;99.90;;;;;;6215653;23;20004;-73
2022/01/30 10:15:06;;;;;;;8.38;1.05;;;10.80;99.90;;;;;;6216111;23;20016;-73
2022/01/30 10:17:37;;;;;;;2.17;1.00;;;10.80;99.90;;;;;;6164803;23;20324;-73
2022/01/30 10:20:09;;;;;;;3.22;0.80;;;10.80;99.90;;;;;;6214902;23;20039;-74
2022/01/30 10:22:52;;;;;;;2.60;0.60;;;10.90;99.90;;;;;;6214863;23;20079;-73
2022/01/30 10:25:26;;;;;;;2.75;0.90;;;10.90;99.90;;;;;;6214890;23;20423;-74
2022/01/30 10:28:19;;;;;;;5.40;1.63;;;10.90;99.90;;;;;;6214787;23;20089;-73
2022/01/30 10:31:02;;;;;;;4.70;0.98;;;10.90;99.90;;;;;;6209622;23;20004;-73
2022/01/30 10:33:49;;;;;;;4.47;0.93;;;11.00;99.90;;;;;;6214789;23;20012;-73
2022/01/30 10:36:30;;;;;;;1.52;0.95;;;11.10;99.90;;;;;;6214863;23;20035;-73
2022/01/30 10:39:12;;;;;;;2.35;0.90;;;11.10;99.90;;;;;;6214829;23;20000;-73
2022/01/30 10:41:45;;;;;;;3.05;1.02;;;11.10;99.90;;;;;;6214837;23;20009;-73
2022/01/30 10:44:13;;;;;;;2.95;1.20;;;11.10;99.90;;;;;;6214543;23;20005;-73
2022/01/30 10:46:48;;;;;;;1.10;0.93;;;11.10;99.90;;;;;;6214740;23;20001;-73
2022/01/30 10:49:16;;;;;;;1.20;1.00;;;11.20;99.90;;;;;;6214560;23;20024;-74
2022/01/30 10:52:03;;;;;;;3.00;1.00;;;11.20;99.90;;;;;;6214615;23;20120;-74
2022/01/30 10:54:34;;;;;;;1.77;0.73;;;11.30;99.90;;;;;;6215416;23;20500;-74
2022/01/30 10:57:09;;;;;;;2.22;0.63;;;11.40;99.90;;;;;;6214161;23;20008;-74
2022/01/30 10:59:42;;;;;;;1.13;0.47;;;11.40;99.90;;;;;;6188253;23;20013;-74
2022/01/30 11:02:17;;;;;;;4.85;1.27;;;11.50;99.90;;;;;;6216023;23;20084;-74
2022/01/30 11:04:47;;;;;;;3.60;1.00;;;11.50;99.90;;;;;;6215809;23;20016;-74
2022/01/30 11:07:16;;;;;;;7.00;0.70;;;11.50;99.90;;;;;;6215886;23;20005;-74
2022/01/30 11:10:23;;;;;;;3.22;1.13;;;11.50;99.90;;;;;;6215819;23;20371;-73
2022/01/30 11:12:57;;;;;;;0.95;0.80;;;11.50;99.90;;;;;;6215320;23;20004;-73
2022/01/30 11:17:57;;;;;;;1.30;0.80;;;11.60;99.90;;;;;;6215763;23;20013;-73
2022/01/30 11:20:26;;;;;;;2.13;0.70;;;11.60;99.90;;;;;;6215795;23;20418;-73
2022/01/30 11:22:57;;;;;;;3.53;0.80;;;11.60;99.90;;;;;;6216363;23;20015;-71
2022/01/30 11:25:25;;;;;;;3.25;0.70;;;11.60;99.90;;;;;;6217810;23;20009;-71
2022/01/30 11:27:54;;;;;;;3.33;1.40;;;11.50;99.90;;;;;;6217808;23;20005;-74
2022/01/30 11:30:23;;;;;;;1.95;0.70;;;11.50;99.90;;;;;;6217862;23;20439;-73
2022/01/30 11:32:52;;;;;;;3.35;0.90;;;11.60;99.90;;;;;;6217009;23;20004;-73
2022/01/30 11:35:18;;;;;;;2.92;0.52;;;11.70;99.90;;;;;;6190109;23;20097;-73
2022/01/30 11:37:45;;;;;;;6.72;0.88;;;11.70;99.90;;;;;;6216540;23;20379;-73
2022/01/30 11:40:17;;;;;;;5.38;1.13;;;11.70;99.90;;;;;;6216562;23;20012;-72
2022/01/30 11:42:47;;;;;;;8.70;1.33;;;11.80;99.90;;;;;;6216541;23;19996;-72
2022/01/30 11:45:32;;;;;;;1.30;0.90;;;11.80;99.90;;;;;;6216677;23;20008;-72
2022/01/30 11:48:03;;;;;;;1.67;0.88;;;11.70;99.90;;;;;;6216188;23;20091;-71
2022/01/30 11:50:33;;;;;;;3.20;1.33;;;11.80;99.90;;;;;;6216717;23;20369;-71
2022/01/30 11:53:08;;;;;;;2.85;1.42;;;11.80;99.90;;;;;;6189549;23;20008;-74
2022/01/30 11:55:49;;;;;;;1.63;0.80;;;11.80;99.90;;;;;;6189741;23;20350;-74
2022/01/30 11:58:37;;;;;;;4.40;0.73;;;11.90;99.90;;;;;;6189740;23;20016;-73
2022/01/30 12:01:27;;;;;;;1.58;0.60;;;11.90;99.90;;;;;;6216483;23;20001;-74
2022/01/30 12:04:04;;;;;;;3.40;1.33;;;11.90;99.90;;;;;;6201231;23;20016;-75
2022/01/30 12:06:34;;;;;;;3.53;0.73;;;12.00;99.90;;;;;;6215484;23;20001;-75
2022/01/30 12:09:03;;;;;;;2.20;0.80;;;12.00;99.90;;;;;;6190489;23;20024;-74
2022/01/30 12:11:47;;;;;;;2.72;1.17;;;11.90;99.90;;;;;;6217335;23;20009;-74
2022/01/30 12:14:19;;;;;;;0.95;0.85;;;12.00;99.90;;;;;;6190936;23;20008;-73
2022/01/30 12:16:49;;;;;;;2.58;0.98;;;12.10;99.90;;;;;;6217480;23;20430;-64
2022/01/30 12:19:40;;;;;;;3.35;0.80;;;12.00;99.90;;;;;;6217611;23;20331;-63
2022/01/30 12:22:16;;;;;;;2.58;1.42;;;12.00;99.90;;;;;;6217336;23;20008;-63
2022/01/30 12:24:44;;;;;;;1.75;1.20;;;12.00;99.90;;;;;;6217141;23;20055;-63
2022/01/30 12:27:10;;;;;;;3.65;1.10;;;12.10;99.90;;;;;;6217273;23;20000;-63
2022/01/30 12:29:42;;;;;;;3.35;1.48;;;12.10;99.90;;;;;;6190559;23;20012;-63
2022/01/30 12:32:24;;;;;;;3.50;1.25;;;12.00;99.90;;;;;;6217640;23;20001;-63
2022/01/30 12:34:57;;;;;;;3.45;1.00;;;12.10;99.90;;;;;;6216584;23;20016;-63
2022/01/30 12:37:33;;;;;;;5.93;1.33;;;12.10;99.90;;;;;;6190552;23;20320;-62
2022/01/30 12:40:15;;;;;;;3.63;1.23;;;12.20;99.90;;;;;;6217096;23;20015;-64
2022/01/30 12:42:42;;;;;;;1.23;0.70;;;12.10;99.90;;;;;;6217331;23;20426;-63
2022/01/30 12:45:10;;;;;;;2.17;1.15;;;12.10;99.90;;;;;;6217065;23;20007;-63
2022/01/30 12:47:59;;;;;;;5.55;1.70;;;12.10;99.90;;;;;;6216920;23;20438;-63
2022/01/30 12:50:32;;;;;;;5.57;1.13;;;12.10;99.90;;;;;;6217036;23;20016;-63
2022/01/30 12:53:01;;;;;;;4.38;2.10;;;12.10;99.90;;;;;;6217118;23;20028;-63
2022/01/30 12:55:29;;;;;;;3.70;0.80;;;12.20;99.90;;;;;;6217233;23;20008;-63
2022/01/30 12:57:57;;;;;;;3.38;1.70;;;12.20;99.90;;;;;;6217394;23;20362;-63
2022/01/30 13:00:24;;;;;;;7.25;1.50;;;12.20;99.90;;;;;;6216917;23;20008;-63
2022/01/30 13:03:08;;;;;;;4.88;1.60;;;12.20;99.90;;;;;;6217007;23;20016;-63
2022/01/30 13:05:44;;;;;;;2.95;0.77;;;12.20;99.90;;;;;;6216904;23;20012;-64
2022/01/30 13:08:10;;;;;;;2.78;1.25;;;12.10;99.90;;;;;;6216839;23;20074;-63
2022/01/30 13:10:37;;;;;;;6.07;1.33;;;12.10;99.90;;;;;;6216833;23;20005;-64
2022/01/30 13:13:05;;;;;;;4.57;1.33;;;12.20;99.90;;;;;;6217173;23;20009;-63
2022/01/30 13:15:38;;;;;;;5.90;1.75;;;12.30;99.90;;;;;;6216421;23;20023;-63
2022/01/30 13:18:05;;;;;;;9.25;1.10;;;12.30;99.90;;;;;;6217101;23;20020;-63
2022/01/30 13:20:32;;;;;;;2.97;1.40;;;12.20;99.90;;;;;;6216637;23;20001;-63
2022/01/30 13:22:58;;;;;;;4.32;1.20;;;12.20;99.90;;;;;;6216749;23;20016;-63
2022/01/30 13:25:25;;;;;;;5.90;1.30;;;12.30;99.90;;;;;;6216630;23;20000;-64
2022/01/30 13:28:00;;;;;;;3.25;1.10;;;12.30;99.90;;;;;;6216878;23;20016;-64
2022/01/30 13:30:30;;;;;;;4.40;1.25;;;12.30;99.90;;;;;;6216620;23;20280;-64
2022/01/30 13:32:56;;;;;;;4.90;1.08;;;12.30;99.90;;;;;;6216602;23;19997;-64
2022/01/30 13:35:25;;;;;;;5.47;1.00;;;12.30;99.90;;;;;;6216541;23;20013;-64
2022/01/30 13:37:58;;;;;;;4.75;1.25;;;12.40;99.90;;;;;;6216593;23;20415;-64
2022/01/30 13:40:42;;;;;;;2.38;1.20;;;12.30;99.90;;;;;;6216804;23;20455;-64
2022/01/30 13:43:19;;;;;;;4.32;1.15;;;12.20;99.90;;;;;;6216937;23;20012;-64
2022/01/30 13:48:21;;;;;;;4.13;1.17;;;12.10;99.90;;;;;;6216199;23;20443;-64
2022/01/30 13:50:52;;;;;;;0.73;0.68;;;12.20;99.90;;;;;;6216561;23;20008;-64
2022/01/30 13:53:24;;;;;;;7.28;1.10;;;12.20;99.90;;;;;;6216811;23;20446;-63
2022/01/30 13:55:53;;;;;;;3.28;0.90;;;12.20;99.90;;;;;;6216321;23;20338;-63
2022/01/30 13:58:22;;;;;;;2.30;1.10;;;12.20;99.90;;;;;;6216227;23;20449;-64
2022/01/30 14:01:01;;;;;;;5.50;1.10;;;12.10;99.90;;;;;;6216421;23;20055;-64
2022/01/30 14:03:29;;;;;;;2.60;1.55;;;12.20;99.90;;;;;;6216065;23;20012;-64
2022/01/30 14:05:57;;;;;;;5.80;1.52;;;12.10;99.90;;;;;;6216287;23;20031;-64
2022/01/30 14:08:26;;;;;;;1.90;1.10;;;12.20;99.90;;;;;;6215917;23;20027;-64
2022/01/30 14:11:12;;;;;;;4.93;1.35;;;12.20;99.90;;;;;;6216596;23;20062;-63
2022/01/30 14:13:42;;;;;;;0.73;0.73;;;12.20;99.90;;;;;;6216215;23;20009;-64
2022/01/30 14:16:23;;;;;;;1.50;0.93;;;12.20;99.90;;;;;;6216086;23;20390;-64
2022/01/30 14:18:56;;;;;;;4.65;2.92;;;12.20;99.90;;;;;;6216816;23;20012;-64